Accueil
METAR-TAF:

METAR-TAF

Aéroports :

MidCoast Regional Airport / Wright Army Airfield

Hinesville, Géorgie, États-Unis

latitude: 31-53N, longitude: 081-34W, altitude: 14 m

Observation

Le bulletin a été fait il y a 28 minutes, à 17:16 UTC
Vent 7 kt de nord-ouest
Température 22°C
Humidité 73%
Pression 1023 hPa
Visibilité: 16.1 km
Nuages fragmentés à une hauteur de 2100 ft
Nuages fragmentés à une hauteur de 6000 ft
Ciel couvert à une hauteur de 7500 ft

METAR: KLHW 191716Z AUTO 31007KT 10SM BKN021 BKN060 OVC075 22/17 A3020 RMK AO2 CIG 021V070 BKN021 V FEW SLP229 $

Heure: 12:44 (17:44 UTC)


TAF: absent

Observations et prévisions météorologiques de plus de 4000 aéroports (messages METAR et TAF).

Les stations disponibles sont représentées par des disques jaunes et rouges sur la carte.

Passer la souris dessus pour voir le nom de la station.

Cliquer dessus pour voir les observations et prévisions météorologiques.

Pour changer de carte: cliquez sur les boutons verts avec une croix noire pour zoomer, sur le bouton vert avec un tiret pour effectuer un zoom arrière, ou sur les flèches vertes pour les cartes adjacentes.


METAR-TAF: